Main page
METAR-TAF:

METAR-TAF

Airports :

Bahrain International Airport

Bahrain, Bahrain

latitude: 26-16N, longitude: 050-39E, elevation: 2 m

Current weather observation

The report was made 22 minutes ago, at 08:30 UTC
Wind 9 kt from the North, varying between North/Northwest and North/Northeast
Temperature 24°C
Humidity 44%
Pressure 1014 hPa
Visibility 10 km or more
no clouds below 1500 m and no cumulonimbus

METAR: OBBI 210830Z 01009KT 330V030 CAVOK 24/11 Q1014 NOSIG

Time: 11:52 (08:52 UTC)

Forecast

The report was made 3 hours and 52 minutes ago, at 05:00 UTC
Forecast valid from 21 at 06 UTC to 22 at 12 UTC
Wind 12 kt from the North
Visibility 10 km or more
no clouds below 1500 m and no cumulonimbus
Probability 30% :
Temporary
from 21 at 12 UTC to 21 at 18 UTC
Wind 20 kt from the North/Northwest with gusts up to 35 kt

TAF: OBBI 210500Z 2106/2212 36012KT CAVOK PROB30 TEMPO 2112/2118 33020G35KT

Weather observations and forecasts of more than 4000 airports (METAR and TAF reports).

The available stations are represented by yellow and red dots on the map.

Hover mouse over dot to see the name of the station.

Then click to see weather observations and forecasts.

To change the map : click on the green buttons with a black cross to zoom in, on the green button with a dash to zoom out, or on the green arrows for adjacent maps.


METAR-TAF: